sensor_id;sensor_type;location;lat;lon;timestamp;pressure;altitude;pressure_sealevel;temperature;humidity
15558;BME280;7880;50.110;9.372;2023-01-08T00:04:45;4.078826204180951;;;4.125;100.0
15558;BME280;7880;50.110;9.372;2023-01-08T00:09:51;4.174622928444296;;;4.25;100.0
15558;BME280;7880;50.110;9.372;2023-01-08T00:15:04;4.487223496311344;;;4.5;100.0
15558;BME280;7880;50.110;9.372;2023-01-08T00:20:01;4.451929827785352;;;4.625;100.0
15558;BME280;7880;50.110;9.372;2023-01-08T00:25:12;4.512433268275345;;;4.625;100.0
15558;BME280;7880;50.110;9.372;2023-01-08T00:30:11;4.774615328019718;;;4.875;100.0
15558;BME280;7880;50.110;9.372;2023-01-08T00:35:19;4.754447449330473;;;4.937;100.0
15558;BME280;7880;50.110;9.372;2023-01-08T00:40:27;4.850244914577343;;;5.0;100.0
15558;BME280;7880;50.110;9.372;2023-01-08T00:45:25;4.870412815385498;;;5.0;100.0
15558;BME280;7880;50.110;9.372;2023-01-08T00:50:30;4.804867154784733;;;4.937;100.0
15558;BME280;7880;50.110;9.372;2023-01-08T00:55:35;4.855286889342824;;;5.0;100.0
15558;BME280;7880;50.110;9.372;2023-01-08T01:00:40;4.935958525171737;;;5.062;100.0
15558;BME280;7880;50.110;9.372;2023-01-08T01:05:49;4.996462300937855;;;5.125;100.0
15558;BME280;7880;50.110;9.372;2023-01-08T01:10:55;5.011588251427748;;;5.187;100.0
15558;BME280;7880;50.110;9.372;2023-01-08T01:15:56;5.006546267640078;;;5.187;100.0
15558;BME280;7880;50.110;9.372;2023-01-08T01:20:59;5.041840160265565;;;5.187;100.0
15558;BME280;7880;50.110;9.372;2023-01-08T01:26:14;5.087218043167377;;;5.187;100.0
15558;BME280;7880;50.110;9.372;2023-01-08T01:31:16;5.056966118613491;;;5.187;100.0
15558;BME280;7880;50.110;9.372;2023-01-08T01:36:24;5.072092079580761;;;5.25;100.0
15558;BME280;7880;50.110;9.372;2023-01-08T01:41:29;5.18301587337628;;;5.312;100.0
15558;BME280;7880;50.110;9.372;2023-01-08T01:46:35;5.167889893200481;;;5.312;100.0
15558;BME280;7880;50.110;9.372;2023-01-08T01:51:41;5.1477219237072855;;;5.312;100.0
15558;BME280;7880;50.110;9.372;2023-01-08T01:56:41;5.18805786735029;;;5.25;100.0
15558;BME280;7880;50.110;9.372;2023-01-08T02:02:03;5.248561817739391;;;5.375;100.0
15558;BME280;7880;50.110;9.372;2023-01-08T02:06:56;5.228393829619745;;;5.375;100.0
15558;BME280;7880;50.110;9.372;2023-01-08T02:12:19;5.440157937124605;;;5.5;100.0
15558;BME280;7880;50.110;9.372;2023-01-08T02:17:08;5.500662062136689;;;5.625;100.0
15558;BME280;7880;50.110;9.372;2023-01-08T02:22:15;5.712426829716423;;;5.812;100.0
15558;BME280;7880;50.110;9.372;2023-01-08T02:27:16;5.636796496645547;;;5.812;100.0
15558;BME280;7880;50.110;9.372;2023-01-08T02:32:24;5.752763034129748;;;5.875;100.0
15558;BME280;7880;50.110;9.372;2023-01-08T02:37:27;5.788057228270918;;;5.937;100.0
15558;BME280;7880;50.110;9.372;2023-01-08T02:42:37;5.873771759128431;;;6.0;100.0
15558;BME280;7880;50.110;9.372;2023-01-08T02:47:44;5.9443602594605185;;;6.125;100.0
15558;BME280;7880;50.110;9.372;2023-01-08T02:52:49;6.0552851609478235;;;6.187;100.0
15558;BME280;7880;50.110;9.372;2023-01-08T02:57:48;6.302345675067045;;;6.5;100.0
15558;BME280;7880;50.110;9.372;2023-01-08T03:03:02;6.468733762024203;;;6.625;100.0
15558;BME280;7880;50.110;9.372;2023-01-08T03:07:58;6.4586496265197635;;;6.625;100.0
15558;BME280;7880;50.110;9.372;2023-01-08T03:13:09;6.519154457008699;;;6.75;100.0
15558;BME280;7880;50.110;9.372;2023-01-08T03:18:10;6.53932274315157;;;6.75;100.0
15558;BME280;7880;50.110;9.372;2023-01-08T03:23:12;6.453607559204102;;;6.687;100.0
15558;BME280;7880;50.110;9.372;2023-01-08T03:28:19;6.4838599674636495;;;6.687;100.0
15558;BME280;7880;50.110;9.372;2023-01-08T03:33:18;6.423355161421933;;;6.625;100.0
15558;BME280;7880;50.110;9.372;2023-01-08T03:38:25;6.488902036525542;;;6.625;100.0
15558;BME280;7880;50.110;9.372;2023-01-08T03:43:28;6.559491033951053;;;6.687;100.0
15558;BME280;7880;50.110;9.372;2023-01-08T03:48:32;6.529238599498058;;;6.687;100.0
15558;BME280;7880;50.110;9.372;2023-01-08T03:53:36;6.57965932940715;;;6.75;100.0
15558;BME280;7880;50.110;9.372;2023-01-08T03:58:40;6.594785554055124;;;6.75;100.0
15558;BME280;7880;50.110;9.372;2023-01-08T04:03:43;6.559491033951053;;;6.75;100.0
15558;BME280;7880;50.110;9.372;2023-01-08T04:08:47;6.574617255106569;;;6.75;100.0
15558;BME280;7880;50.110;9.372;2023-01-08T04:13:55;6.635122165922075;;;6.75;100.0
15558;BME280;7880;50.110;9.372;2023-01-08T04:18:56;6.589743478881428;;;6.75;100.0
15558;BME280;7880;50.110;9.372;2023-01-08T04:24:00;6.645206321799196;;;6.812;100.0
15558;BME280;7880;50.110;9.372;2023-01-08T04:29:03;6.660332557797664;;;6.812;100.0
15558;BME280;7880;50.110;9.372;2023-01-08T04:34:06;6.630080088420073;;;6.812;100.0
15558;BME280;7880;50.110;9.372;2023-01-08T04:39:09;6.640164243715117;;;6.812;100.0
15558;BME280;7880;50.110;9.372;2023-01-08T04:44:12;6.685542956949211;;;6.812;100.0
15558;BME280;7880;50.110;9.372;2023-01-08T04:49:14;6.619995934289181;;;6.75;100.0
15558;BME280;7880;50.110;9.372;2023-01-08T04:54:18;6.65529047884047;;;6.812;100.0
15558;BME280;7880;50.110;9.372;2023-01-08T04:58:44;6.630080088420073;;;6.75;100.0
15558;BME280;7880;50.110;9.372;2023-01-08T05:03:52;6.630080088420073;;;6.75;100.0
15558;BME280;7880;50.110;9.372;2023-01-08T05:08:58;6.640164243715117;;;6.75;100.0
15558;BME280;7880;50.110;9.372;2023-01-08T05:13:57;6.619995934289181;;;6.75;100.0
15558;BME280;7880;50.110;9.372;2023-01-08T05:19:01;6.625038011209108;;;6.75;100.0
15558;BME280;7880;50.110;9.372;2023-01-08T05:24:06;6.5847014039987695;;;6.687;100.0
15558;BME280;7880;50.110;9.372;2023-01-08T05:29:11;6.559491033951053;;;6.625;100.0
15558;BME280;7880;50.110;9.372;2023-01-08T05:34:08;6.574617255106569;;;6.687;100.0
15558;BME280;7880;50.110;9.372;2023-01-08T05:39:12;6.53932274315157;;;6.625;100.0
15558;BME280;7880;50.110;9.372;2023-01-08T05:44:16;6.5241965281078595;;;6.625;100.0
15558;BME280;7880;50.110;9.372;2023-01-08T05:49:29;6.514112386200577;;;6.625;100.0
15558;BME280;7880;50.110;9.372;2023-01-08T05:54:22;6.498986175522441;;;6.562;100.0
15558;BME280;7880;50.110;9.372;2023-01-08T05:59:26;6.453607559204102;;;6.5;100.0
15558;BME280;7880;50.110;9.372;2023-01-08T06:04:30;6.418313096143538;;;6.437;100.0
15558;BME280;7880;50.110;9.372;2023-01-08T06:09:34;6.4031869020545855;;;6.437;100.0
15558;BME280;7880;50.110;9.372;2023-01-08T06:14:36;6.388060710584978;;;6.437;100.0
15558;BME280;7880;50.110;9.372;2023-01-08T06:19:39;6.3275559708999936;;;6.437;100.0
15558;BME280;7880;50.110;9.372;2023-01-08T06:24:44;6.478817898692796;;;6.5;100.0
15558;BME280;7880;50.110;9.372;2023-01-08T06:29:48;6.4838599674636495;;;6.562;100.0
15558;BME280;7880;50.110;9.372;2023-01-08T06:34:53;6.569575181097025;;;6.625;100.0
15558;BME280;7880;50.110;9.372;2023-01-08T06:39:58;6.559491033951053;;;6.687;100.0
15558;BME280;7880;50.110;9.372;2023-01-08T06:45:01;6.604869705275632;;;6.687;100.0
15558;BME280;7880;50.110;9.372;2023-01-08T06:50:07;6.6099117813224435;;;6.75;100.0
15558;BME280;7880;50.110;9.372;2023-01-08T06:55:09;6.619995934289181;;;6.75;100.0
15558;BME280;7880;50.110;9.372;2023-01-08T07:00:13;6.594785554055124;;;6.687;100.0
15558;BME280;7880;50.110;9.372;2023-01-08T07:05:18;6.619995934289181;;;6.75;100.0
15558;BME280;7880;50.110;9.372;2023-01-08T07:10:25;6.690585037652636;;;6.75;100.0
15558;BME280;7880;50.110;9.372;2023-01-08T07:15:24;6.6502484001743145;;;6.75;100.0
15558;BME280;7880;50.110;9.372;2023-01-08T07:20:40;6.6502484001743145;;;6.75;100.0
15558;BME280;7880;50.110;9.372;2023-01-08T07:25:49;6.710753363376716;;;6.812;100.0
15558;BME280;7880;50.110;9.372;2023-01-08T07:30:48;6.660332557797664;;;6.812;100.0
15558;BME280;7880;50.110;9.372;2023-01-08T07:35:54;6.660332557797664;;;6.75;100.0
15558;BME280;7880;50.110;9.372;2023-01-08T07:40:58;6.604869705275632;;;6.687;100.0
15558;BME280;7880;50.110;9.372;2023-01-08T07:46:10;6.6502484001743145;;;6.687;100.0
15558;BME280;7880;50.110;9.372;2023-01-08T07:51:07;6.6502484001743145;;;6.75;100.0
15558;BME280;7880;50.110;9.372;2023-01-08T07:56:14;6.630080088420073;;;6.687;100.0
15558;BME280;7880;50.110;9.372;2023-01-08T08:01:15;6.619995934289181;;;6.687;100.0
15558;BME280;7880;50.110;9.372;2023-01-08T08:06:20;6.630080088420073;;;6.687;100.0
15558;BME280;7880;50.110;9.372;2023-01-08T08:11:23;6.635122165922075;;;6.687;100.0
15558;BME280;7880;50.110;9.372;2023-01-08T08:16:28;6.645206321799196;;;6.687;100.0
15558;BME280;7880;50.110;9.372;2023-01-08T08:21:32;6.640164243715117;;;6.75;100.0
15558;BME280;7880;50.110;9.372;2023-01-08T08:26:37;6.6502484001743145;;;6.75;100.0
15558;BME280;7880;50.110;9.372;2023-01-08T08:31:39;6.670416716585168;;;6.75;100.0
15558;BME280;7880;50.110;9.372;2023-01-08T08:36:44;6.670416716585168;;;6.75;100.0
15558;BME280;7880;50.110;9.372;2023-01-08T08:41:47;6.705711281509139;;;6.812;100.0
15558;BME280;7880;50.110;9.372;2023-01-08T08:46:55;6.756132113281637;;;6.812;100.0
15558;BME280;7880;50.110;9.372;2023-01-08T08:51:57;6.741005860693986;;;6.812;100.0
15558;BME280;7880;50.110;9.372;2023-01-08T08:57:00;6.791426712839166;;;6.875;100.0
15558;BME280;7880;50.110;9.372;2023-01-08T09:02:15;6.816637149825692;;;6.875;100.0
15558;BME280;7880;50.110;9.372;2023-01-08T09:07:09;6.81159506184631;;;6.875;100.0
15558;BME280;7880;50.110;9.372;2023-01-08T09:12:12;6.81159506184631;;;6.875;100.0
15558;BME280;7880;50.110;9.372;2023-01-08T09:17:15;6.8368055046536025;;;6.937;100.0
15558;BME280;7880;50.110;9.372;2023-01-08T09:22:19;6.846889683813788;;;6.937;100.0
15558;BME280;7880;50.110;9.372;2023-01-08T09:27:25;6.862015954736853;;;6.937;100.0
15558;BME280;7880;50.110;9.372;2023-01-08T09:32:26;6.882184320042143;;;7.0;100.0
15558;BME280;7880;50.110;9.372;2023-01-08T09:37:40;6.8922685044410175;;;7.0;100.0
15558;BME280;7880;50.110;9.372;2023-01-08T09:42:34;6.952773635281483;;;7.062;100.0
15558;BME280;7880;50.110;9.372;2023-01-08T09:47:39;6.97294202154153;;;7.062;100.0
15558;BME280;7880;50.110;9.372;2023-01-08T09:52:42;7.083868229208747;;;7.125;100.0
15558;BME280;7880;50.110;9.372;2023-01-08T09:57:47;7.003194609662751;;;7.062;100.0
15558;BME280;7880;50.110;9.372;2023-01-08T10:02:50;7.1040366457367785;;;7.187;100.0
15558;BME280;7880;50.110;9.372;2023-01-08T10:08:03;7.038489309046417;;;7.125;100.0
15558;BME280;7880;50.110;9.372;2023-01-08T10:13:00;7.013278808031464;;;7.125;100.0
15558;BME280;7880;50.110;9.372;2023-01-08T10:18:05;7.093952436890686;;;7.187;100.0
15558;BME280;7880;50.110;9.372;2023-01-08T10:23:09;7.114120855747023;;;7.187;100.0
15558;BME280;7880;50.110;9.372;2023-01-08T10:28:18;7.149415599950589;;;7.312;100.0
15558;BME280;7880;50.110;9.372;2023-01-08T10:33:17;7.1040366457367785;;;7.187;100.0
15558;BME280;7880;50.110;9.372;2023-01-08T10:38:25;7.154457707429538;;;7.187;100.0
15558;BME280;7880;50.110;9.372;2023-01-08T10:43:25;7.1040366457367785;;;7.187;100.0
15558;BME280;7880;50.110;9.372;2023-01-08T10:48:45;7.114120855747023;;;7.187;100.0
15558;BME280;7880;50.110;9.372;2023-01-08T10:53:30;7.1040366457367785;;;7.187;100.0
15558;BME280;7880;50.110;9.372;2023-01-08T10:58:40;7.129247172945179;;;7.187;100.0
15558;BME280;7880;50.110;9.372;2023-01-08T11:03:40;7.093952436890686;;;7.187;100.0
15558;BME280;7880;50.110;9.372;2023-01-08T11:08:51;7.164541923260549;;;7.187;100.0
15558;BME280;7880;50.110;9.372;2023-01-08T11:13:55;7.159499815199524;;;7.25;100.0
15558;BME280;7880;50.110;9.372;2023-01-08T11:18:54;7.149415599950589;;;7.25;100.0
15558;BME280;7880;50.110;9.372;2023-01-08T11:24:17;7.230089354538359;;;7.25;100.0
15558;BME280;7880;50.110;9.372;2023-01-08T11:29:06;7.265384145599091;;;7.312;100.0
15558;BME280;7880;50.110;9.372;2023-01-08T11:34:11;7.134289279259974;;;7.25;100.0
15558;BME280;7880;50.110;9.372;2023-01-08T11:39:09;7.204878798226128;;;7.25;100.0
15558;BME280;7880;50.110;9.372;2023-01-08T11:44:24;7.230089354538359;;;7.25;100.0
15558;BME280;7880;50.110;9.372;2023-01-08T11:49:32;7.366226484352955;;;7.375;100.0
15558;BME280;7880;50.110;9.372;2023-01-08T11:54:40;7.431774066970684;;;7.437;100.0
15558;BME280;7880;50.110;9.372;2023-01-08T11:59:30;7.436816190747777;;;7.5;100.0
15558;BME280;7880;50.110;9.372;2023-01-08T12:04:41;7.467068939522141;;;7.5;100.0
15558;BME280;7880;50.110;9.372;2023-01-08T12:09:38;7.567911511106649;;;7.625;100.0
15558;BME280;7880;50.110;9.372;2023-01-08T12:14:45;7.704049167409539;;;7.75;100.0
15558;BME280;7880;50.110;9.372;2023-01-08T12:19:50;7.6788384743093046;;;7.75;100.0
15558;BME280;7880;50.110;9.372;2023-01-08T12:25:10;7.683880612347275;;;7.75;100.0
15558;BME280;7880;50.110;9.372;2023-01-08T12:30:14;7.709091306902701;;;7.812;100.0
15558;BME280;7880;50.110;9.372;2023-01-08T12:35:14;7.830102742050076;;;7.875;100.0
15558;BME280;7880;50.110;9.372;2023-01-08T12:40:14;7.855313478806056;;;7.937;100.0
15558;BME280;7880;50.110;9.372;2023-01-08T12:45:16;7.951114344835514;;;8.062;100.0
15558;BME280;7880;50.110;9.372;2023-01-08T12:50:43;7.98640942722559;;;8.062;100.0
15558;BME280;7880;50.110;9.372;2023-01-08T12:55:30;8.016662366339006;;;8.062;100.0
15558;BME280;7880;50.110;9.372;2023-01-08T13:00:32;8.001535895472625;;;8.125;100.0
15558;BME280;7880;50.110;9.372;2023-01-08T13:05:34;8.006578052137048;;;8.062;100.0
15558;BME280;7880;50.110;9.372;2023-01-08T13:10:38;8.051957475213566;;;8.125;100.0
15558;BME280;7880;50.110;9.372;2023-01-08T13:15:46;7.98640942722559;;;8.062;100.0
15558;BME280;7880;50.110;9.372;2023-01-08T13:20:54;7.880524222837994;;;7.937;100.0
15558;BME280;7880;50.110;9.372;2023-01-08T13:25:52;7.825060595571995;;;7.937;100.0
15558;BME280;7880;50.110;9.372;2023-01-08T13:31:06;7.76959700352163;;;7.812;100.0
15558;BME280;7880;50.110;9.372;2023-01-08T13:36:17;7.885566372517497;;;7.875;100.0
15558;BME280;7880;50.110;9.372;2023-01-08T13:41:02;7.845229183230549;;;7.875;100.0
15558;BME280;7880;50.110;9.372;2023-01-08T13:46:14;7.910777125280584;;;7.937;100.0
15558;BME280;7880;50.110;9.372;2023-01-08T13:51:28;7.845229183230549;;;7.937;100.0
15558;BME280;7880;50.110;9.372;2023-01-08T13:56:17;7.7897655783744995;;;7.875;100.0
15558;BME280;7880;50.110;9.372;2023-01-08T14:01:21;7.87548207344953;;;7.937;100.0
15558;BME280;7880;50.110;9.372;2023-01-08T14:06:27;7.840187035879353;;;7.875;100.0
15558;BME280;7880;50.110;9.372;2023-01-08T14:11:36;7.87548207344953;;;7.937;100.0
15558;BME280;7880;50.110;9.372;2023-01-08T14:16:35;7.759512717841426;;;7.812;100.0
15558;BME280;7880;50.110;9.372;2023-01-08T14:21:39;7.729259867785731;;;7.812;100.0
15558;BME280;7880;50.110;9.372;2023-01-08T14:26:51;7.840187035879353;;;7.875;100.0
15558;BME280;7880;50.110;9.372;2023-01-08T14:31:48;7.7746391467982905;;;7.875;100.0
15558;BME280;7880;50.110;9.372;2023-01-08T14:36:54;7.809934157883982;;;7.812;100.0
15558;BME280;7880;50.110;9.372;2023-01-08T14:43:07;7.7897655783744995;;;7.812;100.0
15558;BME280;7880;50.110;9.372;2023-01-08T14:48:00;7.69396488929633;;;7.75;100.0
15558;BME280;7880;50.110;9.372;2023-01-08T14:52:56;7.76959700352163;;;7.75;100.0
15558;BME280;7880;50.110;9.372;2023-01-08T14:57:58;7.658669925067807;;;7.687;100.0
15558;BME280;7880;50.110;9.372;2023-01-08T15:03:03;7.668754199106479;;;7.687;100.0
15558;BME280;7880;50.110;9.372;2023-01-08T15:07:17;7.709091306902701;;;7.75;100.0
15558;BME280;7880;50.110;9.372;2023-01-08T15:12:22;7.648585652193288;;;7.687;100.0
15558;BME280;7880;50.110;9.372;2023-01-08T15:17:22;7.734302008734085;;;7.75;100.0
15558;BME280;7880;50.110;9.372;2023-01-08T15:22:32;7.719175586762139;;;7.75;100.0
15558;BME280;7880;50.110;9.372;2023-01-08T15:27:36;7.653627788485028;;;7.687;100.0
15558;BME280;7880;50.110;9.372;2023-01-08T15:32:42;7.668754199106479;;;7.687;100.0
15558;BME280;7880;50.110;9.372;2023-01-08T15:37:45;7.7242177271284165;;;7.75;100.0
15558;BME280;7880;50.110;9.372;2023-01-08T15:43:24;7.688922750676284;;;7.75;100.0
15558;BME280;7880;50.110;9.372;2023-01-08T15:48:07;7.7242177271284165;;;7.75;100.0
15558;BME280;7880;50.110;9.372;2023-01-08T15:53:18;7.673796336562373;;;7.687;100.0
15558;BME280;7880;50.110;9.372;2023-01-08T15:58:17;7.648585652193288;;;7.687;100.0
15558;BME280;7880;50.110;9.372;2023-01-08T16:03:31;7.673796336562373;;;7.687;100.0
15558;BME280;7880;50.110;9.372;2023-01-08T16:08:32;7.714133446686901;;;7.75;100.0
15558;BME280;7880;50.110;9.372;2023-01-08T16:13:37;7.920861428423086;;;8.0;100.0
15558;BME280;7880;50.110;9.372;2023-01-08T16:18:37;7.704049167409539;;;7.812;100.0
15558;BME280;7880;50.110;9.372;2023-01-08T16:23:42;7.59312217219267;;;7.687;100.0
15558;BME280;7880;50.110;9.372;2023-01-08T16:28:47;7.658669925067807;;;7.687;100.0
15558;BME280;7880;50.110;9.372;2023-01-08T16:34:00;7.577995774667943;;;7.625;100.0
15558;BME280;7880;50.110;9.372;2023-01-08T16:39:00;7.613290706300177;;;7.625;100.0
15558;BME280;7880;50.110;9.372;2023-01-08T16:44:02;7.567911511106649;;;7.625;100.0
15558;BME280;7880;50.110;9.372;2023-01-08T16:49:10;7.497321698773885;;;7.562;100.0
15558;BME280;7880;50.110;9.372;2023-01-08T16:54:14;7.59816430528299;;;7.562;100.0
15558;BME280;7880;50.110;9.372;2023-01-08T16:59:16;7.477153191441903;;;7.5;100.0
15558;BME280;7880;50.110;9.372;2023-01-08T17:04:20;7.532616597809829;;;7.562;100.0
15558;BME280;7880;50.110;9.372;2023-01-08T17:09:33;7.51749021076248;;;7.562;100.0
15558;BME280;7880;50.110;9.372;2023-01-08T17:14:31;7.532616597809829;;;7.562;100.0
15558;BME280;7880;50.110;9.372;2023-01-08T17:19:36;7.426731943484628;;;7.5;100.0
15558;BME280;7880;50.110;9.372;2023-01-08T17:24:41;7.3763107246311845;;;7.437;100.0
15558;BME280;7880;50.110;9.372;2023-01-08T17:29:46;7.477153191441903;;;7.5;100.0
15558;BME280;7880;50.110;9.372;2023-01-08T17:34:52;7.497321698773885;;;7.5;100.0
15558;BME280;7880;50.110;9.372;2023-01-08T17:39:58;7.502363826334476;;;7.5;100.0
15558;BME280;7880;50.110;9.372;2023-01-08T17:45:10;7.431774066970684;;;7.5;100.0
15558;BME280;7880;50.110;9.372;2023-01-08T17:50:10;7.366226484352955;;;7.437;100.0
15558;BME280;7880;50.110;9.372;2023-01-08T17:55:13;7.396479208680103;;;7.375;100.0
15558;BME280;7880;50.110;9.372;2023-01-08T18:00:20;7.325889534881571;;;7.375;100.0
15558;BME280;7880;50.110;9.372;2023-01-08T18:05:24;7.325889534881571;;;7.375;100.0
15558;BME280;7880;50.110;9.372;2023-01-08T18:10:29;7.320847417507321;;;7.312;100.0
15558;BME280;7880;50.110;9.372;2023-01-08T18:15:39;7.386394966073567;;;7.375;100.0
15558;BME280;7880;50.110;9.372;2023-01-08T18:20:44;7.346058007288957;;;7.375;100.0
15558;BME280;7880;50.110;9.372;2023-01-08T18:25:50;7.325889534881571;;;7.312;100.0
15558;BME280;7880;50.110;9.372;2023-01-08T18:30:52;7.295636835001642;;;7.312;100.0
15558;BME280;7880;50.110;9.372;2023-01-08T18:36:00;7.199836687836796;;;7.25;100.0
15558;BME280;7880;50.110;9.372;2023-01-08T18:41:13;7.245215691818157;;;7.25;100.0
15558;BME280;7880;50.110;9.372;2023-01-08T18:46:24;7.23513146667392;;;7.187;100.0
15558;BME280;7880;50.110;9.372;2023-01-08T18:51:16;7.154457707429538;;;7.187;100.0
15558;BME280;7880;50.110;9.372;2023-01-08T18:56:26;7.174626140255714;;;7.187;100.0
15558;BME280;7880;50.110;9.372;2023-01-08T19:01:27;7.189752467931248;;;7.187;100.0
15558;BME280;7880;50.110;9.372;2023-01-08T19:06:32;7.199836687836796;;;7.187;100.0
15558;BME280;7880;50.110;9.372;2023-01-08T19:11:37;7.184710358415032;;;7.187;100.0
15558;BME280;7880;50.110;9.372;2023-01-08T19:16:47;7.164541923260549;;;7.187;100.0
15558;BME280;7880;50.110;9.372;2023-01-08T19:21:50;7.184710358415032;;;7.187;100.0
15558;BME280;7880;50.110;9.372;2023-01-08T19:26:59;7.164541923260549;;;7.187;100.0
15558;BME280;7880;50.110;9.372;2023-01-08T19:31:58;7.139331385865807;;;7.187;100.0
15558;BME280;7880;50.110;9.372;2023-01-08T19:37:06;7.038489309046417;;;7.062;100.0
15558;BME280;7880;50.110;9.372;2023-01-08T19:49:15;6.81159506184631;;;6.812;100.0
15558;BME280;7880;50.110;9.372;2023-01-08T19:54:25;6.821679238096112;;;6.75;100.0
15558;BME280;7880;50.110;9.372;2023-01-08T19:59:25;6.720837527984986;;;6.687;100.0
15558;BME280;7880;50.110;9.372;2023-01-08T20:04:41;6.695627118647098;;;6.687;100.0
15558;BME280;7880;50.110;9.372;2023-01-08T20:09:38;6.6502484001743145;;;6.625;100.0
15558;BME280;7880;50.110;9.372;2023-01-08T20:14:41;6.705711281509139;;;6.625;100.0
15558;BME280;7880;50.110;9.372;2023-01-08T20:19:47;6.6502484001743145;;;6.625;100.0
15558;BME280;7880;50.110;9.372;2023-01-08T20:24:58;6.53932274315157;;;6.5;100.0
15558;BME280;7880;50.110;9.372;2023-01-08T20:30:11;6.509070315683493;;;6.5;100.0
15558;BME280;7880;50.110;9.372;2023-01-08T20:35:05;6.589743478881428;;;6.562;100.0
15558;BME280;7880;50.110;9.372;2023-01-08T20:40:09;6.589743478881428;;;6.562;100.0
15558;BME280;7880;50.110;9.372;2023-01-08T20:45:14;6.625038011209108;;;6.625;100.0
15558;BME280;7880;50.110;9.372;2023-01-08T20:50:20;6.504028245457448;;;6.562;100.0
15558;BME280;7880;50.110;9.372;2023-01-08T20:55:24;6.3527662740089;;;6.375;100.0
15558;BME280;7880;50.110;9.372;2023-01-08T21:00:28;6.393102774117142;;;6.375;100.0
15558;BME280;7880;50.110;9.372;2023-01-08T21:05:35;6.307387733651558;;;6.312;100.0
15558;BME280;7880;50.110;9.372;2023-01-08T21:10:38;6.3275559708999936;;;6.25;100.0
15558;BME280;7880;50.110;9.372;2023-01-08T21:15:43;6.383018647343851;;;6.312;100.0
15558;BME280;7880;50.110;9.372;2023-01-08T21:20:49;6.423355161421933;;;6.437;100.0
15558;BME280;7880;50.110;9.372;2023-01-08T21:25:58;6.398144837940345;;;6.437;100.0
15558;BME280;7880;50.110;9.372;2023-01-08T21:31:10;6.372934521734715;;;6.375;100.0
15558;BME280;7880;50.110;9.372;2023-01-08T21:36:12;6.332598030939698;;;6.312;100.0
15558;BME280;7880;50.110;9.372;2023-01-08T21:41:13;6.3527662740089;;;6.375;100.0
15558;BME280;7880;50.110;9.372;2023-01-08T21:46:14;6.418313096143538;;;6.375;100.0
15558;BME280;7880;50.110;9.372;2023-01-08T21:58:07;6.307387733651558;;;6.375;100.0
15558;BME280;7880;50.110;9.372;2023-01-08T22:03:05;6.398144837940345;;;6.375;100.0
15558;BME280;7880;50.110;9.372;2023-01-08T22:08:18;6.367892459366703;;;6.375;100.0
15558;BME280;7880;50.110;9.372;2023-01-08T22:13:19;6.433439292851835;;;6.5;100.0
15558;BME280;7880;50.110;9.372;2023-01-08T22:18:22;6.433439292851835;;;6.437;100.0
15558;BME280;7880;50.110;9.372;2023-01-08T22:23:37;6.362850397289731;;;6.375;100.0
15558;BME280;7880;50.110;9.372;2023-01-08T22:28:32;6.307387733651558;;;6.312;100.0
15558;BME280;7880;50.110;9.372;2023-01-08T22:33:37;6.307387733651558;;;6.312;100.0
15558;BME280;7880;50.110;9.372;2023-01-08T22:38:41;6.357808335503796;;;6.375;100.0
15558;BME280;7880;50.110;9.372;2023-01-08T22:43:46;6.357808335503796;;;6.375;100.0
15558;BME280;7880;50.110;9.372;2023-01-08T22:48:55;6.393102774117142;;;6.375;100.0
15558;BME280;7880;50.110;9.372;2023-01-08T22:53:57;6.4031869020545855;;;6.375;100.0
15558;BME280;7880;50.110;9.372;2023-01-08T22:59:04;6.448565492179478;;;6.437;100.0
15558;BME280;7880;50.110;9.372;2023-01-08T23:04:08;6.438481359003345;;;6.5;100.0
15558;BME280;7880;50.110;9.372;2023-01-08T23:09:13;6.4031869020545855;;;6.437;100.0
15558;BME280;7880;50.110;9.372;2023-01-08T23:14:17;6.398144837940345;;;6.437;100.0
15558;BME280;7880;50.110;9.372;2023-01-08T23:19:20;6.377976584393764;;;6.437;100.0
15558;BME280;7880;50.110;9.372;2023-01-08T23:24:27;6.4031869020545855;;;6.437;100.0
15558;BME280;7880;50.110;9.372;2023-01-08T23:29:38;6.408228966459864;;;6.5;100.0
15558;BME280;7880;50.110;9.372;2023-01-08T23:34:45;6.4132710311561825;;;6.437;100.0
15558;BME280;7880;50.110;9.372;2023-01-08T23:39:56;6.438481359003345;;;6.5;100.0
15558;BME280;7880;50.110;9.372;2023-01-08T23:44:57;6.488902036525542;;;6.562;100.0
15558;BME280;7880;50.110;9.372;2023-01-08T23:49:58;6.438481359003345;;;6.5;100.0
15558;BME280;7880;50.110;9.372;2023-01-08T23:55:06;6.408228966459864;;;6.437;100.0
